• Join FlightAware (Why Join?)
  • Login
  • US Flag 
Gobble Gobble! 
03:16AM EST


 

Airport Tracker/Info


-or-


 

Live Flight TrackerFlight Track Log ✈ DAL3676 ✈ 25-Oct-2013 ✈ KLNK - KMSP

Flight Track Log - Related Links

Times and Time Zones

All times are in EDT time to prevent confusion due to time zone crossing. See the DAL3676 flight status page for this flight to view local times or setup timezone preferences in your user account.

Time Position Orientation Groundspeed Altitude Reporting Facility
EDT Latitude Longitude Course Direction KTS MPH feet Rate Location/Type
02:24PM 40.7964 -96.7475 165° South 165 190 3,200  Level Minneapolis Center
02:25PM 40.7894 -96.7297 117° Southeast 182 209 4,600 2,760 Climbing Minneapolis Center
02:25PM 40.7772 -96.6725 106° East 254 292 6,000 1,980 Climbing Minneapolis Center
02:26PM 40.8111 -96.6478 29° Northeast 258 297 6,700 2,400 Climbing Minneapolis Center
02:27PM 40.8742 -96.5794 39° Northeast 287 330 9,800 2,280 Climbing Minneapolis Center
02:28PM 40.9353 -96.5006 44° Northeast 300 345 11,500 1,980 Climbing Minneapolis Center
02:29PM 41.0028 -96.4153 44° Northeast 324 373 13,900 2,100 Climbing Minneapolis Center
02:30PM 41.0692 -96.3339 43° Northeast 327 376 15,900 1,920 Climbing Minneapolis Center
02:31PM 41.1394 -96.2422 44° Northeast 332 382 17,900 1,740 Climbing Minneapolis Center
02:32PM 41.2203 -96.1383 44° Northeast 335 386 19,600 1,500 Climbing Minneapolis Center
02:33PM 41.2894 -96.0486 44° Northeast 344 396 21,100 1,380 Climbing Minneapolis Center
02:34PM 41.3594 -95.9586 44° Northeast 349 402 22,500 1,200 Climbing Minneapolis Center
02:35PM 41.4306 -95.8667 44° Northeast 356 410 23,700 1,080 Climbing Minneapolis Center
02:36PM 41.5044 -95.7731 43° Northeast 363 418 24,800 960 Climbing Minneapolis Center
02:37PM 41.5778 -95.6767 45° Northeast 368 423 25,800 960 Climbing Minneapolis Center
02:38PM 41.6578 -95.5731 44° Northeast 378 435 26,800 540 Climbing Minneapolis Center
02:39PM 41.7336 -95.4725 45° Northeast 382 440 27,000 60 Climbing Minneapolis Center
02:40PM 41.8281 -95.3497 44° Northeast 390 449 27,000  Level Minneapolis Center
02:41PM 41.9061 -95.2453 45° Northeast 394 453 27,000  Level Minneapolis Center
02:42PM 41.9844 -95.1428 44° Northeast 395 455 27,000  Level Minneapolis Center
02:43PM 42.0614 -95.0397 45° Northeast 393 452 27,000  Level Minneapolis Center
02:44PM 42.1378 -94.9350 45° Northeast 392 451 27,000  Level Minneapolis Center
02:45PM 42.2150 -94.8325 44° Northeast 391 450 27,000  Level Minneapolis Center
02:46PM 42.3075 -94.7092 45° Northeast 388 447 27,000  Level Minneapolis Center
02:47PM 42.3831 -94.6061 45° Northeast 388 447 27,000  Level Minneapolis Center
02:48PM 42.4600 -94.5036 44° Northeast 387 445 27,000  Level Minneapolis Center
02:49PM 42.5272 -94.4083 46° Northeast 382 440 27,000  Level Minneapolis Center
02:50PM 42.6181 -94.2856 45° Northeast 385 443 27,000  Level Minneapolis Center
02:51PM 42.7014 -94.1964 38° Northeast 382 440 27,000  Level Minneapolis Center
02:53PM 42.7831 -94.1056 39° Northeast 382 440 27,000  Level Minneapolis Center
02:54PM 42.8656 -94.0156 39° Northeast 382 440 27,000  Level Minneapolis Center
02:55PM 42.9472 -93.9261 39° Northeast 380 437 27,000  Level Minneapolis Center
02:56PM 43.0458 -93.8178 39° Northeast 381 438 27,000  Level Minneapolis Center
02:57PM 43.1264 -93.7275 39° Northeast 378 435 27,000  Level Minneapolis Center
02:58PM 43.2072 -93.6378 39° Northeast 378 435 27,000 -420 Level Minneapolis Center
02:59PM 43.2906 -93.5558 36° Northeast 376 433 26,200 -1,200 Descending Minneapolis Center
03:00PM 43.3872 -93.5431 North 352 405 24,500 -1,080 Descending Minneapolis Center
03:01PM 43.4792 -93.5361 North 340 391 24,000 -480 Descending Minneapolis Center
03:02PM 43.5869 -93.5244 North 332 382 23,600 -1,080 Descending Minneapolis Center
03:03PM 43.6786 -93.5147 North 331 381 21,800 -1,800 Descending Minneapolis Center
03:04PM 43.7689 -93.5072 North 327 376 20,000 -1,800 Descending Minneapolis Center
03:05PM 43.8553 -93.4981 North 317 365 18,200 -1,860 Descending Minneapolis Center
03:06PM 43.9553 -93.4897 North 305 351 16,200 -1,860 Descending Minneapolis Center
03:07PM 44.0361 -93.4817 North 297 342 14,400 -1,800 Descending Minneapolis Center
03:08PM 44.1161 -93.4742 North 290 334 12,500 -1,620 Descending Minneapolis Center
03:09PM 44.1942 -93.4664 North 284 327 11,100 -780 Descending Minneapolis Center
03:10PM 44.2697 -93.4358 16° North 286 329 11,000 -60 Descending Minneapolis Center
03:11PM 44.3419 -93.3861 26° Northeast 291 335 11,000  Level Minneapolis Center
03:12PM 44.4292 -93.3244 27° Northeast 294 338 11,000  Level Minneapolis Center
03:13PM 44.5044 -93.2719 26° Northeast 302 348 11,000 -60 Level Minneapolis Center
03:14PM 44.5786 -93.2197 27° Northeast 302 348 10,900 -840 Descending Minneapolis Center
03:15PM 44.6481 -93.1847 20° North 267 307 9,300 -1,440 Descending Minneapolis Center
03:16PM 44.7122 -93.2314 333° Northwest 258 297 8,000 -660 Descending Minneapolis Center
03:17PM 44.7789 -93.2733 336° Northwest 247 284 8,000 -540 Level Minneapolis Center
03:18PM 44.8247 -93.3189 325° Northwest 205 236 7,000 -1,200 Descending Minneapolis Center
03:19PM 44.8508 -93.3736 304° West 168 193 5,600 -1,500 Descending Minneapolis Center
03:20PM 44.8797 -93.4117 317° Northwest 194 223 3,900 -1,260 Descending Minneapolis Center
03:21PM 44.9264 -93.3333 50° Northeast 220 253 3,000 -1,140 Descending Minneapolis Center
03:22PM 44.9025 -93.2678 117° Southeast 183 211 1,600 -1,380 Descending Minneapolis Center
03:24PM 44.8820 -93.2218 35° Northeast  Level Estimated
03:31PM 44.8820 -93.2218 35° Northeast  Level Estimated